This is the latest recevied weather packets stored in our database for station/object KK4PWJ-13. If no packets are shown the sender has not sent any weather packets the latest 10 day(s).
| Time | Temp. | Humidity | Pressure | Rain* | Wind** | Luminosity | Snow |
|---|---|---|---|---|---|---|---|
| 1777645364 | 13.89° C | 64% | 1013.9 hPa | 0 mm | - | 147 W/m² | - |
| 1777645060 | 13.33° C | 62% | 1014.1 hPa | 0 mm | - | 159 W/m² | - |
| 1777644757 | 13.33° C | 65% | 1014 hPa | 0 mm | - | 145 W/m² | - |
| 1777644454 | 12.78° C | 68% | 1014 hPa | 0 mm | - | 134 W/m² | - |
| 1777644151 | 12.78° C | 63% | 1014.1 hPa | 0 mm | - | 147 W/m² | - |
| 1777643847 | 12.78° C | 67% | 1014.1 hPa | 0 mm | - | 132 W/m² | - |
| 1777643545 | 12.78° C | 69% | 1014.1 hPa | 0 mm | - | 131 W/m² | - |
| 1777643241 | 12.22° C | 68% | 1014 hPa | 0 mm | - | 138 W/m² | - |
| 1777642938 | 12.22° C | 69% | 1014.2 hPa | 0 mm | - | 135 W/m² | - |
| 1777642634 | 12.22° C | 70% | 1014.4 hPa | 0 mm | - | 123 W/m² | - |
| 1777642332 | 12.22° C | 73% | 1014.1 hPa | 0 mm | - | 119 W/m² | - |
| 1777642028 | 11.67° C | 73% | 1013.9 hPa | 0 mm | - | 115 W/m² | - |
| 1777641724 | 11.67° C | 73% | 1014.1 hPa | 0 mm | - | 110 W/m² | - |
| 1777641419 | 11.67° C | 74% | 1014.2 hPa | 0 mm | - | 98 W/m² | - |
| 1777641115 | 11.11° C | 73% | 1014.3 hPa | 0 mm | - | 97 W/m² | - |
| 1777640811 | 11.11° C | 76% | 1014.2 hPa | 0 mm | - | 89 W/m² | - |
| 1777640205 | 10.56° C | 74% | 1014.3 hPa | 0 mm | - | 81 W/m² | - |
| 1777639599 | 10.56° C | 78% | 1014.4 hPa | 0 mm | - | 42 W/m² | - |
| 1777639296 | 10.56° C | 78% | 1014.3 hPa | 0 mm | - | 36 W/m² | - |
| 1777638992 | 10.56° C | 78% | 1014.1 hPa | 0 mm | - | 48 W/m² | - |
| 1777638687 | 10.56° C | 82% | 1014.3 hPa | 0 mm | - | 36 W/m² | - |
| 1777638385 | 10.56° C | 83% | 1014.5 hPa | 0 mm | - | 34 W/m² | - |
| 1777638081 | 10° C | 83% | 1014.3 hPa | 0 mm | - | 53 W/m² | - |
| 1777637777 | 10° C | 84% | 1014.4 hPa | 0 mm | - | 48 W/m² | - |
| 1777637474 | 9.44° C | 85% | 1014.5 hPa | 0 mm | - | 63 W/m² | - |
* Rain latest hour (hover to see other rain measurements)
** Current wind speed in m/s (hover to see current wind gust speed)